createdAt,value
2019-02-20T00:00:24.708Z,101221.95
2019-02-20T00:02:55.727Z,101225.84
2019-02-20T00:05:26.502Z,101225.33
2019-02-20T00:07:58.605Z,101216.21
2019-02-20T00:10:29.209Z,101225.84
2019-02-20T00:13:06.221Z,101220.95
2019-02-20T00:15:39.400Z,101219.55
2019-02-20T00:18:08.726Z,101216.06
2019-02-20T00:20:37.616Z,101222.66
2019-02-20T00:23:09.291Z,101225.47
2019-02-20T00:25:39.352Z,101232.87
2019-02-20T00:28:11.043Z,101229.87
2019-02-20T00:30:43.929Z,101238.13
2019-02-20T00:33:12.806Z,101238.64
2019-02-20T00:35:47.370Z,101234.30
2019-02-20T00:38:18.346Z,101233.84
2019-02-20T00:40:46.892Z,101235.58
2019-02-20T00:43:15.798Z,101233.81
2019-02-20T00:46:08.434Z,101232.06
2019-02-20T00:48:46.114Z,101229.47
2019-02-20T00:51:29.336Z,101229.47
2019-02-20T00:54:02.731Z,101231.67
2019-02-20T00:56:35.228Z,101231.55
2019-02-20T00:59:04.610Z,101226.36
2019-02-20T01:01:36.993Z,101238.61
2019-02-20T01:04:09.780Z,101225.84
2019-02-20T01:06:38.699Z,101224.98
2019-02-20T01:09:09.076Z,101232.06
2019-02-20T01:11:40.880Z,101237.30
2019-02-20T01:14:13.181Z,101234.23
2019-02-20T01:16:45.528Z,101236.90
2019-02-20T01:19:14.285Z,101240.32
2019-02-20T01:21:43.205Z,101239.44
2019-02-20T01:24:17.374Z,101240.44
2019-02-20T01:26:46.292Z,101238.55
2019-02-20T01:29:15.052Z,101240.75
2019-02-20T01:31:51.846Z,101237.69
2019-02-20T01:34:24.214Z,101239.47
2019-02-20T01:36:53.139Z,101237.23
2019-02-20T01:39:25.574Z,101237.69
2019-02-20T01:41:59.243Z,101232.04
2019-02-20T01:44:27.326Z,101229.02
2019-02-20T01:46:57.535Z,101226.41
2019-02-20T01:49:27.736Z,101224.75
2019-02-20T01:51:56.904Z,101227.27
2019-02-20T01:54:35.200Z,101219.27
2019-02-20T01:57:07.227Z,101222.84
2019-02-20T01:59:36.156Z,101217.59
2019-02-20T02:02:05.591Z,101232.02
2019-02-20T02:04:38.917Z,101232.89
2019-02-20T02:07:07.887Z,101229.02
2019-02-20T02:09:40.325Z,101234.64
2019-02-20T02:12:10.560Z,101232.50
2019-02-20T02:14:42.742Z,101228.01
2019-02-20T02:17:16.727Z,101223.64
2019-02-20T02:19:48.717Z,101229.44
2019-02-20T02:22:17.316Z,101221.55
2019-02-20T02:24:46.292Z,101223.36
2019-02-20T02:27:22.879Z,101214.56
2019-02-20T02:29:58.074Z,101220.23
2019-02-20T02:32:27.115Z,101209.16
2019-02-20T02:35:00.722Z,101203.50
2019-02-20T02:37:29.992Z,101204.75
2019-02-20T02:39:59.226Z,101204.30
2019-02-20T02:42:28.792Z,101206.47
2019-02-20T02:45:02.337Z,101207.78
2019-02-20T02:47:36.303Z,101201.63
2019-02-20T02:50:04.940Z,101205.55
2019-02-20T02:52:33.909Z,101209.00
2019-02-20T02:55:05.856Z,101201.55
2019-02-20T02:57:39.497Z,101210.75
2019-02-20T03:00:09.791Z,101209.06
2019-02-20T03:02:38.477Z,101212.98
2019-02-20T03:05:11.758Z,101210.31
2019-02-20T03:07:42.391Z,101206.87
2019-02-20T03:10:14.589Z,101217.78
2019-02-20T03:12:46.678Z,101220.92
2019-02-20T03:15:17.608Z,101219.58
2019-02-20T03:17:47.286Z,101209.95
2019-02-20T03:20:17.920Z,101208.15
2019-02-20T03:22:49.758Z,101212.95
2019-02-20T03:25:19.102Z,101205.92
2019-02-20T03:27:50.925Z,101201.97
2019-02-20T03:30:23.519Z,101203.29
2019-02-20T03:32:57.365Z,101198.40
2019-02-20T03:35:29.525Z,101209.64
2019-02-20T03:38:03.084Z,101214.17
2019-02-20T03:40:36.843Z,101207.11
2019-02-20T03:43:05.571Z,101213.74
2019-02-20T03:45:34.213Z,101204.05
2019-02-20T03:48:08.384Z,101201.85
2019-02-20T03:50:38.543Z,101205.34
2019-02-20T03:53:10.898Z,101205.64
2019-02-20T03:55:43.384Z,101204.41
2019-02-20T03:58:12.650Z,101207.48
2019-02-20T04:00:43.216Z,101203.53
2019-02-20T04:03:15.254Z,101199.13
2019-02-20T04:05:46.015Z,101197.84
2019-02-20T04:08:15.864Z,101196.47
2019-02-20T04:10:47.605Z,101193.31
2019-02-20T04:13:22.585Z,101199.09
2019-02-20T04:15:54.575Z,101200.41
2019-02-20T04:18:25.764Z,101196.04
2019-02-20T04:20:57.821Z,101193.50
2019-02-20T04:23:30.746Z,101200.08
2019-02-20T04:26:09.853Z,101199.13
2019-02-20T04:28:39.815Z,101203.53
2019-02-20T04:31:10.430Z,101200.84
2019-02-20T04:33:41.391Z,101202.31
2019-02-20T04:36:14.160Z,101211.42
2019-02-20T04:38:42.976Z,101219.37
2019-02-20T04:41:13.856Z,101217.66
2019-02-20T04:43:47.333Z,101212.89
2019-02-20T04:46:16.977Z,101219.95
2019-02-20T04:48:47.760Z,101204.81
2019-02-20T04:51:24.122Z,101216.64
2019-02-20T04:53:53.186Z,101218.58
2019-02-20T04:56:22.380Z,101217.67
2019-02-20T04:58:58.565Z,101213.27
2019-02-20T05:01:29.741Z,101219.41
2019-02-20T05:03:58.288Z,101213.27
2019-02-20T05:06:26.879Z,101213.64
2019-02-20T05:08:59.284Z,101208.78
2019-02-20T05:11:31.826Z,101204.45
2019-02-20T05:14:02.516Z,101208.38
2019-02-20T05:16:32.768Z,101215.07
2019-02-20T05:19:09.807Z,101214.24
2019-02-20T05:21:42.430Z,101207.67
2019-02-20T05:24:11.332Z,101218.70
2019-02-20T05:26:42.270Z,101209.95
2019-02-20T05:29:11.361Z,101213.41
2019-02-20T05:31:45.200Z,101218.19
2019-02-20T05:34:14.155Z,101217.76
2019-02-20T05:36:42.705Z,101206.70
2019-02-20T05:39:12.904Z,101205.39
2019-02-20T05:41:43.352Z,101207.96
2019-02-20T05:44:15.973Z,101212.27
2019-02-20T05:46:46.624Z,101219.41
2019-02-20T05:49:15.682Z,101213.27
2019-02-20T05:51:48.103Z,101222.10
2019-02-20T05:54:22.556Z,101219.50
2019-02-20T05:56:54.765Z,101223.20
2019-02-20T05:59:28.249Z,101227.70
2019-02-20T06:01:58.797Z,101221.67
2019-02-20T06:04:29.415Z,101233.95
2019-02-20T06:06:58.524Z,101233.95
2019-02-20T06:09:31.418Z,101233.47
2019-02-20T06:12:03.618Z,101238.72
2019-02-20T06:14:37.723Z,101241.81
2019-02-20T06:17:09.768Z,101240.13
2019-02-20T06:19:40.395Z,101238.41
2019-02-20T06:22:15.241Z,101243.20
2019-02-20T06:24:50.254Z,101250.71
2019-02-20T06:27:20.939Z,101249.77
2019-02-20T06:29:49.893Z,101253.26
2019-02-20T06:32:24.001Z,101248.89
2019-02-20T06:35:37.227Z,101250.23
2019-02-20T06:38:36.596Z,101254.17
2019-02-20T06:41:53.051Z,101257.36
2019-02-20T06:44:58.657Z,101257.41
2019-02-20T06:47:53.758Z,101264.52
2019-02-20T06:51:04.566Z,101266.30
2019-02-20T06:54:05.826Z,101269.75
2019-02-20T06:56:54.619Z,101275.95
2019-02-20T06:59:23.556Z,101279.41
2019-02-20T07:01:56.387Z,101275.47
2019-02-20T07:04:25.244Z,101282.82
2019-02-20T07:07:37.315Z,101286.73
2019-02-20T07:10:51.920Z,101284.56
2019-02-20T07:13:43.963Z,101293.33
2019-02-20T07:17:03.085Z,101294.14
2019-02-20T07:20:13.679Z,101293.23
2019-02-20T07:22:50.617Z,101299.27
2019-02-20T07:25:28.705Z,101297.98
2019-02-20T07:28:27.940Z,101305.33
2019-02-20T07:30:58.912Z,101301.87
2019-02-20T07:33:31.830Z,101304.87
2019-02-20T07:36:02.033Z,101313.64
2019-02-20T07:38:32.877Z,101310.91
2019-02-20T07:41:03.256Z,101306.83
2019-02-20T07:43:34.939Z,101309.78
2019-02-20T07:46:03.646Z,101316.59
2019-02-20T07:48:32.717Z,101310.73
2019-02-20T07:51:01.516Z,101317.06
2019-02-20T07:53:31.572Z,101325.33
2019-02-20T07:56:00.134Z,101324.87
2019-02-20T07:58:30.694Z,101322.64
2019-02-20T08:00:59.647Z,101334.84
2019-02-20T08:03:31.939Z,101333.50
2019-02-20T08:06:02.569Z,101341.48
2019-02-20T08:08:32.495Z,101350.27
2019-02-20T08:11:02.160Z,101345.28
2019-02-20T08:13:39.088Z,101348.70
2019-02-20T08:16:05.519Z,101350.39
2019-02-20T08:18:35.765Z,101354.33
2019-02-20T08:21:04.721Z,101360.83
2019-02-20T08:23:37.891Z,101360.27
2019-02-20T08:26:08.079Z,101359.75
2019-02-20T08:28:38.228Z,101365.84
2019-02-20T08:31:06.782Z,101371.73
2019-02-20T08:33:36.708Z,101376.02
2019-02-20T08:36:05.850Z,101376.02
2019-02-20T08:38:34.433Z,101388.20
2019-02-20T08:41:03.128Z,101388.20
2019-02-20T08:43:33.783Z,101384.55
2019-02-20T08:46:04.087Z,101389.18
2019-02-20T08:48:33.175Z,101386.09
2019-02-20T08:51:02.027Z,101395.63
2019-02-20T08:53:30.771Z,101399.52
2019-02-20T08:56:04.377Z,101410.48
2019-02-20T08:58:33.864Z,101408.53
2019-02-20T09:01:06.097Z,101414.45
2019-02-20T09:03:35.346Z,101414.45
2019-02-20T09:06:04.610Z,101411.45
2019-02-20T09:08:33.942Z,101411.45
2019-02-20T09:11:02.527Z,101419.80
2019-02-20T09:13:35.378Z,101418.90
2019-02-20T09:16:04.213Z,101416.19
2019-02-20T09:18:38.796Z,101416.36
2019-02-20T09:21:15.129Z,101417.94
2019-02-20T09:23:50.305Z,101420.14
2019-02-20T09:26:21.050Z,101414.33
2019-02-20T09:28:50.742Z,101415.43
2019-02-20T09:31:22.396Z,101422.77
2019-02-20T09:33:53.170Z,101419.70
2019-02-20T09:36:27.174Z,101419.70
2019-02-20T09:38:56.096Z,101420.78
2019-02-20T09:41:24.950Z,101418.11
2019-02-20T09:43:55.481Z,101424.23
2019-02-20T09:46:25.911Z,101421.87
2019-02-20T09:48:56.131Z,101432.66
2019-02-20T09:51:26.676Z,101427.27
2019-02-20T09:53:58.907Z,101434.28
2019-02-20T09:56:29.473Z,101432.58
2019-02-20T09:58:59.620Z,101438.47
2019-02-20T10:01:29.900Z,101439.87
2019-02-20T10:03:59.642Z,101443.82
2019-02-20T10:06:28.780Z,101446.92
2019-02-20T10:09:00.665Z,101439.37
2019-02-20T10:11:30.182Z,101439.37
2019-02-20T10:14:00.826Z,101452.57
2019-02-20T10:16:32.668Z,101457.86
2019-02-20T10:19:02.565Z,101465.14
2019-02-20T10:21:34.695Z,101469.45
2019-02-20T10:24:06.290Z,101461.17
2019-02-20T10:26:36.999Z,101479.20
2019-02-20T10:29:09.311Z,101474.68
2019-02-20T10:31:40.050Z,101474.94
2019-02-20T10:34:08.943Z,101480.67
2019-02-20T10:36:37.747Z,101466.44
2019-02-20T10:39:06.915Z,101481.17
2019-02-20T10:41:40.371Z,101480.98
2019-02-20T10:44:12.597Z,101479.34
2019-02-20T10:46:44.175Z,101476.97
2019-02-20T10:49:14.672Z,101477.08
2019-02-20T10:51:44.900Z,101473.16
2019-02-20T10:54:13.443Z,101473.30
2019-02-20T10:56:42.007Z,101474.62
2019-02-20T10:59:12.578Z,101473.45
2019-02-20T11:01:41.522Z,101470.09
2019-02-20T11:04:10.240Z,101475.27
2019-02-20T11:06:44.221Z,101476.80
2019-02-20T11:09:14.672Z,101474.81
2019-02-20T11:11:44.564Z,101479.95
2019-02-20T11:14:15.229Z,101469.70
2019-02-20T11:16:45.552Z,101480.81
2019-02-20T11:19:17.502Z,101471.46
2019-02-20T11:21:50.657Z,101476.99
2019-02-20T11:24:24.882Z,101474.34
2019-02-20T11:26:55.597Z,101470.89
2019-02-20T11:29:26.135Z,101474.72
2019-02-20T11:31:58.342Z,101475.67
2019-02-20T11:34:29.041Z,101479.16
2019-02-20T11:36:59.584Z,101478.36
2019-02-20T11:39:37.703Z,101477.31
2019-02-20T11:42:04.858Z,101479.84
2019-02-20T11:44:33.411Z,101480.65
2019-02-20T11:47:03.435Z,101477.47
2019-02-20T11:49:34.134Z,101473.86
2019-02-20T11:52:04.905Z,101475.89
2019-02-20T11:54:35.428Z,101479.42
2019-02-20T11:57:07.601Z,101469.69
2019-02-20T11:59:38.517Z,101465.61
2019-02-20T12:02:10.842Z,101467.05
2019-02-20T12:04:39.568Z,101464.28
2019-02-20T12:07:08.289Z,101458.52
2019-02-20T12:09:38.809Z,101470.21
2019-02-20T12:12:09.522Z,101468.15
2019-02-20T12:14:40.414Z,101465.61
2019-02-20T12:17:10.729Z,101462.43
2019-02-20T12:19:40.831Z,101472.53
2019-02-20T12:22:10.110Z,101460.70
2019-02-20T12:24:38.657Z,101461.53
2019-02-20T12:30:26.339Z,101452.26
2019-02-20T12:32:56.868Z,101451.89
2019-02-20T12:35:25.744Z,101449.88
2019-02-20T12:37:54.451Z,101446.70
2019-02-20T12:40:24.937Z,101455.80
2019-02-20T12:42:53.892Z,101451.31
2019-02-20T12:45:22.431Z,101449.12
2019-02-20T12:47:53.671Z,101455.02
2019-02-20T12:50:22.398Z,101454.91
2019-02-20T12:52:51.313Z,101456.65
2019-02-20T12:55:20.019Z,101454.11
2019-02-20T12:57:50.119Z,101460.52
2019-02-20T13:00:19.964Z,101456.55
2019-02-20T13:02:50.520Z,101455.17
2019-02-20T13:05:21.529Z,101456.08
2019-02-20T13:07:50.804Z,101448.49
2019-02-20T13:10:22.430Z,101442.03
2019-02-20T13:12:52.598Z,101439.06
2019-02-20T13:15:21.827Z,101441.30
2019-02-20T13:17:53.763Z,101440.59
2019-02-20T13:20:22.591Z,101436.88
2019-02-20T13:22:52.842Z,101434.41
2019-02-20T13:25:23.726Z,101436.19
2019-02-20T13:27:56.596Z,101440.46
2019-02-20T13:30:28.201Z,101437.09
2019-02-20T13:32:56.961Z,101434.16
2019-02-20T13:35:27.753Z,101445.16
2019-02-20T13:38:00.014Z,101441.48
2019-02-20T13:40:28.917Z,101439.39
2019-02-20T13:42:59.031Z,101444.14
2019-02-20T13:45:33.173Z,101437.16
2019-02-20T13:48:02.804Z,101441.48
2019-02-20T13:50:32.083Z,101445.38
2019-02-20T13:53:01.128Z,101442.07
2019-02-20T13:55:34.522Z,101442.56
2019-02-20T13:58:03.520Z,101442.02
2019-02-20T14:00:33.814Z,101439.75
2019-02-20T14:03:03.092Z,101443.63
2019-02-20T14:05:33.393Z,101442.48
2019-02-20T14:08:02.289Z,101443.72
2019-02-20T14:10:33.612Z,101445.41
2019-02-20T14:13:02.839Z,101437.20
2019-02-20T14:15:33.390Z,101442.76
2019-02-20T14:18:04.232Z,101441.67
2019-02-20T14:20:34.593Z,101441.74
2019-02-20T14:23:03.319Z,101443.47
2019-02-20T14:25:36.432Z,101439.51
2019-02-20T14:28:05.175Z,101433.57
2019-02-20T14:30:33.693Z,101426.81
2019-02-20T14:33:02.881Z,101425.31
2019-02-20T14:35:31.762Z,101425.59
2019-02-20T14:38:00.649Z,101421.28
2019-02-20T14:40:32.442Z,101428.84
2019-02-20T14:43:01.411Z,101433.84
2019-02-20T14:45:34.832Z,101438.53
2019-02-20T14:48:07.411Z,101430.00
2019-02-20T14:50:35.975Z,101426.47
2019-02-20T14:53:08.143Z,101427.23
2019-02-20T14:55:41.697Z,101426.09
2019-02-20T14:58:15.457Z,101430.31
2019-02-20T15:00:45.773Z,101394.93
2019-02-20T15:03:16.226Z,101433.00
2019-02-20T15:05:48.008Z,101433.13
2019-02-20T15:08:19.930Z,101429.98
2019-02-20T15:10:50.409Z,101433.05
2019-02-20T15:13:24.910Z,101438.23
2019-02-20T15:15:54.845Z,101435.80
2019-02-20T15:18:25.286Z,101432.52
2019-02-20T15:20:56.146Z,101432.56
2019-02-20T15:23:27.191Z,101436.59
2019-02-20T15:25:58.123Z,101434.05
2019-02-20T15:28:30.482Z,101436.16
2019-02-20T15:31:02.979Z,101434.47
2019-02-20T15:33:35.417Z,101436.34
2019-02-20T15:36:04.117Z,101433.33
2019-02-20T15:38:34.699Z,101432.91
2019-02-20T15:41:05.520Z,101436.94
2019-02-20T15:43:35.091Z,101437.09
2019-02-20T15:46:05.785Z,101438.63
2019-02-20T15:48:36.600Z,101445.12
2019-02-20T15:51:09.880Z,101446.39
2019-02-20T15:53:38.770Z,101446.28
2019-02-20T15:56:09.651Z,101448.08
2019-02-20T15:58:40.566Z,101449.09
2019-02-20T16:01:11.535Z,101450.94
2019-02-20T16:03:44.311Z,101443.16
2019-02-20T16:06:15.338Z,101442.48
2019-02-20T16:08:46.059Z,101447.98
2019-02-20T16:11:16.473Z,101456.04
2019-02-20T16:13:47.275Z,101453.07
2019-02-20T16:16:19.283Z,101458.66
2019-02-20T16:18:52.996Z,101457.41
2019-02-20T16:21:26.904Z,101458.55
2019-02-20T16:23:58.133Z,101455.95
2019-02-20T16:26:31.475Z,101462.34
2019-02-20T16:29:04.195Z,101478.38
2019-02-20T16:31:35.004Z,101478.63
2019-02-20T16:34:04.167Z,101478.02
2019-02-20T16:36:37.817Z,101483.50
2019-02-20T16:39:09.114Z,101480.72
2019-02-20T16:41:39.663Z,101479.23
2019-02-20T16:44:10.229Z,101480.80
2019-02-20T16:46:39.486Z,101483.05
2019-02-20T16:49:10.444Z,101484.69
2019-02-20T16:51:39.557Z,101482.22
2019-02-20T16:54:10.498Z,101486.91
2019-02-20T16:56:39.045Z,101490.23
2019-02-20T16:59:12.621Z,101489.42
2019-02-20T17:01:43.783Z,101494.02
2019-02-20T17:04:17.355Z,101494.48
2019-02-20T17:06:46.089Z,101496.39
2019-02-20T17:09:15.484Z,101495.78
2019-02-20T17:11:45.437Z,101494.66
2019-02-20T17:14:15.390Z,101496.91
2019-02-20T17:16:44.508Z,101502.42
2019-02-20T17:19:13.229Z,101505.25
2019-02-20T17:21:46.055Z,101511.56
2019-02-20T17:24:15.367Z,101514.81
2019-02-20T17:26:43.932Z,101518.91
2019-02-20T17:29:14.019Z,101518.73
2019-02-20T17:31:45.121Z,101512.67
2019-02-20T17:34:14.242Z,101512.67
2019-02-20T17:36:44.473Z,101520.16
2019-02-20T17:39:13.625Z,101523.15
2019-02-20T17:41:42.369Z,101533.93
2019-02-20T17:44:12.589Z,101528.27
2019-02-20T17:46:42.809Z,101530.02
2019-02-20T17:49:11.750Z,101533.14
2019-02-20T17:51:40.651Z,101543.30
2019-02-20T17:54:09.372Z,101533.38
2019-02-20T17:56:37.959Z,101541.28
2019-02-20T17:59:06.828Z,101543.09
2019-02-20T18:01:37.407Z,101544.47
2019-02-20T18:04:07.326Z,101548.02
2019-02-20T18:06:36.451Z,101549.38
2019-02-20T18:09:09.765Z,101551.61
2019-02-20T18:11:40.415Z,101545.94
2019-02-20T18:14:09.909Z,101545.94
2019-02-20T18:16:40.514Z,101548.91
2019-02-20T18:19:09.251Z,101547.62
2019-02-20T18:21:39.116Z,101551.98
2019-02-20T18:24:08.119Z,101556.84
2019-02-20T18:26:36.665Z,101562.15
2019-02-20T18:29:05.205Z,101558.69
2019-02-20T18:31:38.239Z,101557.89
2019-02-20T18:34:06.652Z,101555.03
2019-02-20T18:36:37.313Z,101555.03
2019-02-20T18:39:08.301Z,101559.05
2019-02-20T18:41:37.914Z,101561.84
2019-02-20T18:44:06.494Z,101561.42
2019-02-20T18:46:35.399Z,101559.27
2019-02-20T18:49:04.643Z,101556.61
2019-02-20T18:51:35.046Z,101561.73
2019-02-20T18:54:03.638Z,101561.80
2019-02-20T18:56:34.150Z,101569.20
2019-02-20T18:59:03.319Z,101560.42
2019-02-20T19:01:34.216Z,101561.30
2019-02-20T19:04:02.804Z,101566.48
2019-02-20T19:06:35.931Z,101568.38
2019-02-20T19:09:20.400Z,101567.09
2019-02-20T19:12:21.683Z,101570.63
2019-02-20T19:15:26.918Z,101566.72
2019-02-20T19:18:20.249Z,101569.84
2019-02-20T19:21:12.882Z,101576.05
2019-02-20T19:24:33.983Z,101569.44
2019-02-20T19:27:45.740Z,101578.52
2019-02-20T19:30:50.901Z,101586.44
2019-02-20T19:33:53.329Z,101580.82
2019-02-20T19:36:59.270Z,101584.38
2019-02-20T19:39:40.898Z,101578.70
2019-02-20T19:42:35.160Z,101578.86
2019-02-20T19:45:20.766Z,101583.66
2019-02-20T19:48:26.681Z,101575.37
2019-02-20T19:51:41.190Z,101576.69
2019-02-20T19:54:28.996Z,101572.87
2019-02-20T19:57:24.699Z,101573.34
2019-02-20T20:00:16.971Z,101571.66
2019-02-20T20:03:30.964Z,101566.06
2019-02-20T20:06:40.779Z,101574.89
2019-02-20T20:09:29.603Z,101574.17
2019-02-20T20:12:22.451Z,101572.98
2019-02-20T20:15:05.797Z,101571.71
2019-02-20T20:18:15.695Z,101574.78
2019-02-20T20:21:14.420Z,101570.06
2019-02-20T20:24:19.017Z,101572.30
2019-02-20T20:27:07.548Z,101574.95
2019-02-20T20:30:04.710Z,101580.69
2019-02-20T20:33:06.520Z,101577.17
2019-02-20T20:36:08.387Z,101569.83
2019-02-20T20:39:36.447Z,101569.39
2019-02-20T20:42:48.482Z,101578.23
2019-02-20T20:46:07.173Z,101582.63
2019-02-20T20:49:09.747Z,101581.31
2019-02-20T20:52:15.703Z,101579.59
2019-02-20T20:55:19.498Z,101577.77
2019-02-20T20:58:15.261Z,101570.38
2019-02-20T21:01:25.336Z,101575.28
2019-02-20T21:04:15.002Z,101578.44
2019-02-20T21:06:56.131Z,101574.15
2019-02-20T21:09:53.343Z,101572.00
2019-02-20T21:12:48.444Z,101570.73
2019-02-20T21:15:53.460Z,101569.06
2019-02-20T21:18:44.940Z,101564.31
2019-02-20T21:21:31.355Z,101565.66
2019-02-20T21:24:39.858Z,101564.38
2019-02-20T21:27:55.769Z,101570.08
2019-02-20T21:31:15.170Z,101562.25
2019-02-20T21:34:35.855Z,101568.83
2019-02-20T21:37:37.695Z,101567.02
2019-02-20T21:40:31.266Z,101565.73
2019-02-20T21:43:14.403Z,101571.88
2019-02-20T21:46:15.152Z,101578.39
2019-02-20T21:49:28.880Z,101583.64
2019-02-20T21:52:34.956Z,101577.15
2019-02-20T21:55:31.358Z,101586.82
2019-02-20T21:58:22.786Z,101589.08
2019-02-20T22:01:27.868Z,101586.47
2019-02-20T22:04:18.433Z,101583.88
2019-02-20T22:07:32.895Z,101577.73
2019-02-20T22:10:24.126Z,101577.27
2019-02-20T22:13:27.703Z,101589.53
2019-02-20T22:16:15.357Z,101583.91
2019-02-20T22:19:16.658Z,101587.92
2019-02-20T22:22:10.439Z,101592.72
2019-02-20T22:25:16.084Z,101592.72
2019-02-20T22:28:19.339Z,101593.19
2019-02-20T22:31:29.159Z,101596.69
2019-02-20T22:34:19.119Z,101597.56
2019-02-20T22:37:31.375Z,101596.72
2019-02-20T22:40:33.412Z,101593.72
2019-02-20T22:43:40.695Z,101595.96
2019-02-20T22:46:22.200Z,101598.63
2019-02-20T22:49:01.780Z,101593.78
2019-02-20T22:52:08.943Z,101595.56
2019-02-20T22:55:23.858Z,101598.22
2019-02-20T22:58:03.188Z,101604.86
2019-02-20T23:01:12.594Z,101600.48
2019-02-20T23:04:21.747Z,101598.75
2019-02-20T23:07:30.448Z,101604.86
2019-02-20T23:11:06.858Z,101606.23
2019-02-20T23:14:19.241Z,101604.50
2019-02-20T23:16:50.637Z,101609.35
2019-02-20T23:19:19.523Z,101615.91
2019-02-20T23:21:51.263Z,101612.87
2019-02-20T23:24:23.702Z,101612.02
2019-02-20T23:26:57.085Z,101619.44
2019-02-20T23:29:26.130Z,101617.22
2019-02-20T23:31:54.746Z,101616.39
2019-02-20T23:34:24.794Z,101619.46
2019-02-20T23:36:55.143Z,101619.04
2019-02-20T23:39:23.696Z,101626.92
2019-02-20T23:41:52.304Z,101625.61
2019-02-20T23:44:20.914Z,101622.53
2019-02-20T23:46:51.049Z,101629.52
2019-02-20T23:49:19.628Z,101624.70
2019-02-20T23:51:51.869Z,101625.10
2019-02-20T23:54:23.343Z,101624.22
2019-02-20T23:56:53.611Z,101627.70
2019-02-20T23:59:25.261Z,101628.56
